sensor_id;sensor_type;location;lat;lon;timestamp;temperature;humidity
19232;DHT22;9750;48.730;10.294;2022-08-21T00:00:48;16.90;99.90
19232;DHT22;9750;48.730;10.294;2022-08-21T00:03:16;16.80;99.90
19232;DHT22;9750;48.730;10.294;2022-08-21T00:05:45;16.80;99.90
19232;DHT22;9750;48.730;10.294;2022-08-21T00:08:15;16.70;99.90
19232;DHT22;9750;48.730;10.294;2022-08-21T00:10:45;16.70;99.90
19232;DHT22;9750;48.730;10.294;2022-08-21T00:13:13;16.70;99.90
19232;DHT22;9750;48.730;10.294;2022-08-21T00:15:41;16.60;99.90
19232;DHT22;9750;48.730;10.294;2022-08-21T00:18:09;16.60;99.90
19232;DHT22;9750;48.730;10.294;2022-08-21T00:20:38;16.50;99.90
19232;DHT22;9750;48.730;10.294;2022-08-21T00:26:29;16.50;99.90
19232;DHT22;9750;48.730;10.294;2022-08-21T00:28:56;16.50;99.90
19232;DHT22;9750;48.730;10.294;2022-08-21T00:31:23;16.40;99.90
19232;DHT22;9750;48.730;10.294;2022-08-21T00:33:51;16.40;99.90
19232;DHT22;9750;48.730;10.294;2022-08-21T00:36:18;16.40;99.90
19232;DHT22;9750;48.730;10.294;2022-08-21T00:38:45;16.40;99.90
19232;DHT22;9750;48.730;10.294;2022-08-21T00:41:13;16.40;99.90
19232;DHT22;9750;48.730;10.294;2022-08-21T00:43:41;16.40;99.90
19232;DHT22;9750;48.730;10.294;2022-08-21T00:46:09;16.40;99.90
19232;DHT22;9750;48.730;10.294;2022-08-21T00:48:36;16.40;99.90
19232;DHT22;9750;48.730;10.294;2022-08-21T00:51:07;16.30;99.90
19232;DHT22;9750;48.730;10.294;2022-08-21T00:53:36;16.30;99.90
19232;DHT22;9750;48.730;10.294;2022-08-21T00:56:05;16.30;99.90
19232;DHT22;9750;48.730;10.294;2022-08-21T00:58:34;16.30;99.90
19232;DHT22;9750;48.730;10.294;2022-08-21T01:01:05;16.20;99.90
19232;DHT22;9750;48.730;10.294;2022-08-21T01:03:33;16.30;99.90
19232;DHT22;9750;48.730;10.294;2022-08-21T01:06:01;16.20;99.90
19232;DHT22;9750;48.730;10.294;2022-08-21T01:08:30;16.20;99.90
19232;DHT22;9750;48.730;10.294;2022-08-21T01:10:59;16.20;99.90
19232;DHT22;9750;48.730;10.294;2022-08-21T01:13:27;16.20;99.90
19232;DHT22;9750;48.730;10.294;2022-08-21T01:15:58;16.10;99.90
19232;DHT22;9750;48.730;10.294;2022-08-21T01:18:28;16.10;99.90
19232;DHT22;9750;48.730;10.294;2022-08-21T01:21:08;16.10;99.90
19232;DHT22;9750;48.730;10.294;2022-08-21T01:23:38;16.10;99.90
19232;DHT22;9750;48.730;10.294;2022-08-21T01:26:07;16.10;99.90
19232;DHT22;9750;48.730;10.294;2022-08-21T01:28:38;16.10;99.90
19232;DHT22;9750;48.730;10.294;2022-08-21T01:31:08;16.00;99.90
19232;DHT22;9750;48.730;10.294;2022-08-21T01:33:37;16.00;99.90
19232;DHT22;9750;48.730;10.294;2022-08-21T01:36:06;16.00;99.90
19232;DHT22;9750;48.730;10.294;2022-08-21T01:38:34;16.00;99.90
19232;DHT22;9750;48.730;10.294;2022-08-21T01:41:01;16.00;99.90
19232;DHT22;9750;48.730;10.294;2022-08-21T01:43:29;15.90;99.90
19232;DHT22;9750;48.730;10.294;2022-08-21T01:45:56;15.90;99.90
19232;DHT22;9750;48.730;10.294;2022-08-21T01:48:23;15.90;99.90
19232;DHT22;9750;48.730;10.294;2022-08-21T01:50:51;15.90;99.90
19232;DHT22;9750;48.730;10.294;2022-08-21T01:53:19;15.90;99.90
19232;DHT22;9750;48.730;10.294;2022-08-21T01:55:47;15.90;99.90
19232;DHT22;9750;48.730;10.294;2022-08-21T01:58:14;15.90;99.90
19232;DHT22;9750;48.730;10.294;2022-08-21T02:00:42;15.80;99.90
19232;DHT22;9750;48.730;10.294;2022-08-21T02:03:09;15.80;99.90
19232;DHT22;9750;48.730;10.294;2022-08-21T02:05:36;15.80;99.90
19232;DHT22;9750;48.730;10.294;2022-08-21T02:08:06;15.80;99.90
19232;DHT22;9750;48.730;10.294;2022-08-21T02:10:35;15.70;99.90
19232;DHT22;9750;48.730;10.294;2022-08-21T02:13:05;15.70;99.90
19232;DHT22;9750;48.730;10.294;2022-08-21T02:15:33;15.70;99.90
19232;DHT22;9750;48.730;10.294;2022-08-21T02:18:02;15.70;99.90
19232;DHT22;9750;48.730;10.294;2022-08-21T02:20:32;15.70;99.90
19232;DHT22;9750;48.730;10.294;2022-08-21T02:23:01;15.70;99.90
19232;DHT22;9750;48.730;10.294;2022-08-21T02:25:30;15.70;99.90
19232;DHT22;9750;48.730;10.294;2022-08-21T02:28:02;15.70;99.90
19232;DHT22;9750;48.730;10.294;2022-08-21T02:30:33;15.70;99.90
19232;DHT22;9750;48.730;10.294;2022-08-21T02:36:05;15.70;99.90
19232;DHT22;9750;48.730;10.294;2022-08-21T02:38:34;15.70;99.90
19232;DHT22;9750;48.730;10.294;2022-08-21T02:41:04;15.70;99.90
19232;DHT22;9750;48.730;10.294;2022-08-21T02:43:35;15.70;99.90
19232;DHT22;9750;48.730;10.294;2022-08-21T02:46:04;15.60;99.90
19232;DHT22;9750;48.730;10.294;2022-08-21T02:48:32;15.60;99.90
19232;DHT22;9750;48.730;10.294;2022-08-21T02:51:03;15.60;99.90
19232;DHT22;9750;48.730;10.294;2022-08-21T02:53:32;15.60;99.90
19232;DHT22;9750;48.730;10.294;2022-08-21T02:56:01;15.60;99.90
19232;DHT22;9750;48.730;10.294;2022-08-21T02:58:34;15.60;99.90
19232;DHT22;9750;48.730;10.294;2022-08-21T03:01:03;15.60;99.90
19232;DHT22;9750;48.730;10.294;2022-08-21T03:03:31;15.50;99.90
19232;DHT22;9750;48.730;10.294;2022-08-21T03:06:00;15.50;99.90
19232;DHT22;9750;48.730;10.294;2022-08-21T03:08:28;15.50;99.90
19232;DHT22;9750;48.730;10.294;2022-08-21T03:10:55;15.50;99.90
19232;DHT22;9750;48.730;10.294;2022-08-21T03:13:25;15.50;99.90
19232;DHT22;9750;48.730;10.294;2022-08-21T03:15:53;15.50;99.90
19232;DHT22;9750;48.730;10.294;2022-08-21T03:18:22;15.50;99.90
19232;DHT22;9750;48.730;10.294;2022-08-21T03:20:50;15.40;99.90
19232;DHT22;9750;48.730;10.294;2022-08-21T03:23:18;15.40;99.90
19232;DHT22;9750;48.730;10.294;2022-08-21T03:25:46;15.40;99.90
19232;DHT22;9750;48.730;10.294;2022-08-21T03:28:16;15.40;99.90
19232;DHT22;9750;48.730;10.294;2022-08-21T03:30:47;15.30;99.90
19232;DHT22;9750;48.730;10.294;2022-08-21T03:33:15;15.30;99.90
19232;DHT22;9750;48.730;10.294;2022-08-21T03:35:47;15.30;99.90
19232;DHT22;9750;48.730;10.294;2022-08-21T03:38:16;15.20;99.90
19232;DHT22;9750;48.730;10.294;2022-08-21T03:40:45;15.20;99.90
19232;DHT22;9750;48.730;10.294;2022-08-21T03:43:12;15.20;99.90
19232;DHT22;9750;48.730;10.294;2022-08-21T03:45:40;15.20;99.90
19232;DHT22;9750;48.730;10.294;2022-08-21T03:48:08;15.20;99.90
19232;DHT22;9750;48.730;10.294;2022-08-21T03:50:38;15.20;99.90
19232;DHT22;9750;48.730;10.294;2022-08-21T03:53:09;15.20;99.90
19232;DHT22;9750;48.730;10.294;2022-08-21T03:55:37;15.10;99.90
19232;DHT22;9750;48.730;10.294;2022-08-21T03:58:04;15.10;99.90
19232;DHT22;9750;48.730;10.294;2022-08-21T04:00:32;15.10;99.90
19232;DHT22;9750;48.730;10.294;2022-08-21T04:06:21;15.10;99.90
19232;DHT22;9750;48.730;10.294;2022-08-21T04:08:50;15.10;99.90
19232;DHT22;9750;48.730;10.294;2022-08-21T04:11:17;15.00;99.90
19232;DHT22;9750;48.730;10.294;2022-08-21T04:13:45;15.00;99.90
19232;DHT22;9750;48.730;10.294;2022-08-21T04:16:13;15.00;99.90
19232;DHT22;9750;48.730;10.294;2022-08-21T04:18:41;15.00;99.90
19232;DHT22;9750;48.730;10.294;2022-08-21T04:21:10;15.00;99.90
19232;DHT22;9750;48.730;10.294;2022-08-21T04:23:38;14.90;99.90
19232;DHT22;9750;48.730;10.294;2022-08-21T04:26:07;14.90;99.90
19232;DHT22;9750;48.730;10.294;2022-08-21T04:28:34;14.90;99.90
19232;DHT22;9750;48.730;10.294;2022-08-21T04:31:01;14.90;99.90
19232;DHT22;9750;48.730;10.294;2022-08-21T04:33:29;14.90;99.90
19232;DHT22;9750;48.730;10.294;2022-08-21T04:35:56;14.90;99.90
19232;DHT22;9750;48.730;10.294;2022-08-21T04:38:23;14.90;99.90
19232;DHT22;9750;48.730;10.294;2022-08-21T04:40:52;14.90;99.90
19232;DHT22;9750;48.730;10.294;2022-08-21T04:43:21;14.90;99.90
19232;DHT22;9750;48.730;10.294;2022-08-21T04:45:50;14.90;99.90
19232;DHT22;9750;48.730;10.294;2022-08-21T04:48:19;14.90;99.90
19232;DHT22;9750;48.730;10.294;2022-08-21T04:50:50;14.90;99.90
19232;DHT22;9750;48.730;10.294;2022-08-21T04:53:23;14.90;99.90
19232;DHT22;9750;48.730;10.294;2022-08-21T04:55:52;14.90;99.90
19232;DHT22;9750;48.730;10.294;2022-08-21T04:58:24;14.90;99.90
19232;DHT22;9750;48.730;10.294;2022-08-21T05:00:53;15.00;99.90
19232;DHT22;9750;48.730;10.294;2022-08-21T05:03:21;15.00;99.90
19232;DHT22;9750;48.730;10.294;2022-08-21T05:05:49;15.00;99.90
19232;DHT22;9750;48.730;10.294;2022-08-21T05:08:19;15.10;99.90
19232;DHT22;9750;48.730;10.294;2022-08-21T05:10:49;15.10;99.90
19232;DHT22;9750;48.730;10.294;2022-08-21T05:13:17;15.20;99.90
19232;DHT22;9750;48.730;10.294;2022-08-21T05:15:46;15.20;99.90
19232;DHT22;9750;48.730;10.294;2022-08-21T05:18:14;15.30;99.90
19232;DHT22;9750;48.730;10.294;2022-08-21T05:20:42;15.30;99.90
19232;DHT22;9750;48.730;10.294;2022-08-21T05:23:12;15.40;99.90
19232;DHT22;9750;48.730;10.294;2022-08-21T05:25:40;15.40;99.90
19232;DHT22;9750;48.730;10.294;2022-08-21T05:28:09;15.40;99.90
19232;DHT22;9750;48.730;10.294;2022-08-21T05:30:37;15.50;99.90
19232;DHT22;9750;48.730;10.294;2022-08-21T05:33:07;15.50;99.90
19232;DHT22;9750;48.730;10.294;2022-08-21T05:35:35;15.50;99.90
19232;DHT22;9750;48.730;10.294;2022-08-21T05:38:04;15.60;99.90
19232;DHT22;9750;48.730;10.294;2022-08-21T05:40:32;15.60;99.90
19232;DHT22;9750;48.730;10.294;2022-08-21T05:43:11;15.60;99.90
19232;DHT22;9750;48.730;10.294;2022-08-21T05:45:38;15.70;99.90
19232;DHT22;9750;48.730;10.294;2022-08-21T05:48:09;15.70;99.90
19232;DHT22;9750;48.730;10.294;2022-08-21T05:50:36;15.80;99.90
19232;DHT22;9750;48.730;10.294;2022-08-21T05:53:04;15.80;99.90
19232;DHT22;9750;48.730;10.294;2022-08-21T05:55:32;15.80;99.90
19232;DHT22;9750;48.730;10.294;2022-08-21T05:57:59;15.90;99.90
19232;DHT22;9750;48.730;10.294;2022-08-21T06:00:26;15.90;99.90
19232;DHT22;9750;48.730;10.294;2022-08-21T06:02:54;16.00;99.90
19232;DHT22;9750;48.730;10.294;2022-08-21T06:05:23;16.00;99.90
19232;DHT22;9750;48.730;10.294;2022-08-21T06:07:50;16.00;99.90
19232;DHT22;9750;48.730;10.294;2022-08-21T06:10:18;16.10;99.90
19232;DHT22;9750;48.730;10.294;2022-08-21T06:12:45;16.10;99.90
19232;DHT22;9750;48.730;10.294;2022-08-21T06:15:13;16.20;99.90
19232;DHT22;9750;48.730;10.294;2022-08-21T06:17:40;16.30;99.90
19232;DHT22;9750;48.730;10.294;2022-08-21T06:20:08;16.30;99.90
19232;DHT22;9750;48.730;10.294;2022-08-21T06:22:37;16.30;99.90
19232;DHT22;9750;48.730;10.294;2022-08-21T06:25:05;16.40;99.90
19232;DHT22;9750;48.730;10.294;2022-08-21T06:27:33;16.40;99.90
19232;DHT22;9750;48.730;10.294;2022-08-21T06:30:00;16.50;99.90
19232;DHT22;9750;48.730;10.294;2022-08-21T06:32:27;16.50;99.90
19232;DHT22;9750;48.730;10.294;2022-08-21T06:34:55;16.50;99.90
19232;DHT22;9750;48.730;10.294;2022-08-21T06:37:22;16.60;99.90
19232;DHT22;9750;48.730;10.294;2022-08-21T06:39:51;16.60;99.90
19232;DHT22;9750;48.730;10.294;2022-08-21T06:42:19;16.60;99.90
19232;DHT22;9750;48.730;10.294;2022-08-21T06:44:46;16.70;99.90
19232;DHT22;9750;48.730;10.294;2022-08-21T06:47:14;16.70;99.90
19232;DHT22;9750;48.730;10.294;2022-08-21T06:49:42;16.70;99.90
19232;DHT22;9750;48.730;10.294;2022-08-21T06:52:10;16.80;99.90
19232;DHT22;9750;48.730;10.294;2022-08-21T06:54:39;16.80;99.90
19232;DHT22;9750;48.730;10.294;2022-08-21T06:57:08;16.90;99.90
19232;DHT22;9750;48.730;10.294;2022-08-21T06:59:35;16.90;99.90
19232;DHT22;9750;48.730;10.294;2022-08-21T07:02:03;17.00;99.90
19232;DHT22;9750;48.730;10.294;2022-08-21T07:04:30;17.00;99.90
19232;DHT22;9750;48.730;10.294;2022-08-21T07:06:58;17.10;99.90
19232;DHT22;9750;48.730;10.294;2022-08-21T07:09:25;17.20;99.90
19232;DHT22;9750;48.730;10.294;2022-08-21T07:11:54;17.20;99.90
19232;DHT22;9750;48.730;10.294;2022-08-21T07:14:23;17.30;99.90
19232;DHT22;9750;48.730;10.294;2022-08-21T07:16:51;17.40;99.90
19232;DHT22;9750;48.730;10.294;2022-08-21T07:19:18;17.40;99.90
19232;DHT22;9750;48.730;10.294;2022-08-21T07:21:46;17.50;99.90
19232;DHT22;9750;48.730;10.294;2022-08-21T07:24:14;17.50;99.90
19232;DHT22;9750;48.730;10.294;2022-08-21T07:26:41;17.60;99.90
19232;DHT22;9750;48.730;10.294;2022-08-21T07:29:08;17.70;99.90
19232;DHT22;9750;48.730;10.294;2022-08-21T07:31:37;17.70;99.90
19232;DHT22;9750;48.730;10.294;2022-08-21T07:34:05;17.80;99.90
19232;DHT22;9750;48.730;10.294;2022-08-21T07:36:34;17.90;99.90
19232;DHT22;9750;48.730;10.294;2022-08-21T07:39:01;17.90;99.90
19232;DHT22;9750;48.730;10.294;2022-08-21T07:41:29;18.00;99.90
19232;DHT22;9750;48.730;10.294;2022-08-21T07:43:58;18.10;99.90
19232;DHT22;9750;48.730;10.294;2022-08-21T07:46:26;18.10;99.90
19232;DHT22;9750;48.730;10.294;2022-08-21T07:48:55;18.10;99.90
19232;DHT22;9750;48.730;10.294;2022-08-21T07:51:26;18.20;99.90
19232;DHT22;9750;48.730;10.294;2022-08-21T07:53:55;18.20;99.90
19232;DHT22;9750;48.730;10.294;2022-08-21T07:56:23;18.30;99.90
19232;DHT22;9750;48.730;10.294;2022-08-21T07:58:50;18.40;99.90
19232;DHT22;9750;48.730;10.294;2022-08-21T08:01:18;18.40;99.90
19232;DHT22;9750;48.730;10.294;2022-08-21T08:03:45;18.50;98.90
19232;DHT22;9750;48.730;10.294;2022-08-21T08:06:15;18.50;99.50
19232;DHT22;9750;48.730;10.294;2022-08-21T08:08:44;18.50;98.70
19232;DHT22;9750;48.730;10.294;2022-08-21T08:11:12;18.60;97.60
19232;DHT22;9750;48.730;10.294;2022-08-21T08:13:42;18.60;97.30
19232;DHT22;9750;48.730;10.294;2022-08-21T08:16:10;18.60;98.00
19232;DHT22;9750;48.730;10.294;2022-08-21T08:18:37;18.70;96.30
19232;DHT22;9750;48.730;10.294;2022-08-21T08:21:05;18.70;96.90
19232;DHT22;9750;48.730;10.294;2022-08-21T08:23:34;18.70;96.80
19232;DHT22;9750;48.730;10.294;2022-08-21T08:26:02;18.80;96.60
19232;DHT22;9750;48.730;10.294;2022-08-21T08:28:29;18.80;95.60
19232;DHT22;9750;48.730;10.294;2022-08-21T08:30:57;18.90;95.20
19232;DHT22;9750;48.730;10.294;2022-08-21T08:33:25;18.90;95.10
19232;DHT22;9750;48.730;10.294;2022-08-21T08:35:53;18.90;95.20
19232;DHT22;9750;48.730;10.294;2022-08-21T08:38:22;19.00;95.70
19232;DHT22;9750;48.730;10.294;2022-08-21T08:40:55;19.10;94.40
19232;DHT22;9750;48.730;10.294;2022-08-21T08:43:25;19.10;94.80
19232;DHT22;9750;48.730;10.294;2022-08-21T08:45:56;19.10;95.40
19232;DHT22;9750;48.730;10.294;2022-08-21T08:48:39;19.20;94.90
19232;DHT22;9750;48.730;10.294;2022-08-21T08:51:11;19.20;95.00
19232;DHT22;9750;48.730;10.294;2022-08-21T08:53:48;19.30;94.90
19232;DHT22;9750;48.730;10.294;2022-08-21T08:56:21;19.30;95.60
19232;DHT22;9750;48.730;10.294;2022-08-21T08:58:51;19.40;94.00
19232;DHT22;9750;48.730;10.294;2022-08-21T09:01:20;19.50;93.90
19232;DHT22;9750;48.730;10.294;2022-08-21T09:03:48;19.50;92.40
19232;DHT22;9750;48.730;10.294;2022-08-21T09:06:25;19.60;93.40
19232;DHT22;9750;48.730;10.294;2022-08-21T09:09:02;19.60;93.40
19232;DHT22;9750;48.730;10.294;2022-08-21T09:11:41;19.70;94.80
19232;DHT22;9750;48.730;10.294;2022-08-21T09:14:19;19.80;93.20
19232;DHT22;9750;48.730;10.294;2022-08-21T09:16:56;19.80;91.90
19232;DHT22;9750;48.730;10.294;2022-08-21T09:19:40;19.90;92.40
19232;DHT22;9750;48.730;10.294;2022-08-21T09:22:19;19.90;92.00
19232;DHT22;9750;48.730;10.294;2022-08-21T09:24:58;20.00;92.70
19232;DHT22;9750;48.730;10.294;2022-08-21T09:27:31;20.00;92.20
19232;DHT22;9750;48.730;10.294;2022-08-21T09:29:59;20.10;91.10
19232;DHT22;9750;48.730;10.294;2022-08-21T09:32:30;20.20;90.30
19232;DHT22;9750;48.730;10.294;2022-08-21T09:35:00;20.20;90.70
19232;DHT22;9750;48.730;10.294;2022-08-21T09:37:30;20.30;89.60
19232;DHT22;9750;48.730;10.294;2022-08-21T09:39:59;20.30;90.10
19232;DHT22;9750;48.730;10.294;2022-08-21T09:42:31;20.30;89.80
19232;DHT22;9750;48.730;10.294;2022-08-21T09:45:13;20.40;89.40
19232;DHT22;9750;48.730;10.294;2022-08-21T09:47:41;20.40;90.10
19232;DHT22;9750;48.730;10.294;2022-08-21T09:50:13;20.40;89.60
19232;DHT22;9750;48.730;10.294;2022-08-21T09:52:46;20.60;88.00
19232;DHT22;9750;48.730;10.294;2022-08-21T09:55:22;20.60;90.20
19232;DHT22;9750;48.730;10.294;2022-08-21T09:58:08;20.60;89.20
19232;DHT22;9750;48.730;10.294;2022-08-21T10:00:36;20.70;89.50
19232;DHT22;9750;48.730;10.294;2022-08-21T10:03:12;20.70;88.60
19232;DHT22;9750;48.730;10.294;2022-08-21T10:05:40;20.70;89.20
19232;DHT22;9750;48.730;10.294;2022-08-21T10:08:17;20.80;88.00
19232;DHT22;9750;48.730;10.294;2022-08-21T10:10:45;20.80;85.80
19232;DHT22;9750;48.730;10.294;2022-08-21T10:13:21;20.90;85.20
19232;DHT22;9750;48.730;10.294;2022-08-21T10:15:59;20.90;86.70
19232;DHT22;9750;48.730;10.294;2022-08-21T10:18:32;21.00;86.00
19232;DHT22;9750;48.730;10.294;2022-08-21T10:21:07;21.10;87.00
19232;DHT22;9750;48.730;10.294;2022-08-21T10:23:49;21.20;86.50
19232;DHT22;9750;48.730;10.294;2022-08-21T10:26:30;21.20;84.20
19232;DHT22;9750;48.730;10.294;2022-08-21T10:29:08;21.20;83.20
19232;DHT22;9750;48.730;10.294;2022-08-21T10:31:44;21.20;84.30
19232;DHT22;9750;48.730;10.294;2022-08-21T10:34:26;21.30;85.20
19232;DHT22;9750;48.730;10.294;2022-08-21T10:37:05;21.40;85.00
19232;DHT22;9750;48.730;10.294;2022-08-21T10:39:43;21.40;82.50
19232;DHT22;9750;48.730;10.294;2022-08-21T10:42:23;21.50;82.40
19232;DHT22;9750;48.730;10.294;2022-08-21T10:45:07;21.60;82.70
19232;DHT22;9750;48.730;10.294;2022-08-21T10:47:41;21.70;83.30
19232;DHT22;9750;48.730;10.294;2022-08-21T10:50:17;21.70;82.10
19232;DHT22;9750;48.730;10.294;2022-08-21T10:53:14;21.70;80.00
19232;DHT22;9750;48.730;10.294;2022-08-21T10:55:49;21.80;81.00
19232;DHT22;9750;48.730;10.294;2022-08-21T10:58:22;21.80;81.00
19232;DHT22;9750;48.730;10.294;2022-08-21T11:00:58;21.90;80.30
19232;DHT22;9750;48.730;10.294;2022-08-21T11:03:32;22.00;78.30
19232;DHT22;9750;48.730;10.294;2022-08-21T11:06:04;22.00;78.20
19232;DHT22;9750;48.730;10.294;2022-08-21T11:08:37;22.00;78.00
19232;DHT22;9750;48.730;10.294;2022-08-21T11:11:08;21.90;78.20
19232;DHT22;9750;48.730;10.294;2022-08-21T11:13:40;21.80;78.10
19232;DHT22;9750;48.730;10.294;2022-08-21T11:16:17;21.80;76.80
19232;DHT22;9750;48.730;10.294;2022-08-21T11:18:50;21.80;77.70
19232;DHT22;9750;48.730;10.294;2022-08-21T11:21:30;21.90;79.20
19232;DHT22;9750;48.730;10.294;2022-08-21T11:24:03;22.00;76.30
19232;DHT22;9750;48.730;10.294;2022-08-21T11:26:38;22.10;76.80
19232;DHT22;9750;48.730;10.294;2022-08-21T11:29:11;22.10;72.60
19232;DHT22;9750;48.730;10.294;2022-08-21T11:31:51;22.10;72.80
19232;DHT22;9750;48.730;10.294;2022-08-21T11:34:35;22.10;73.80
19232;DHT22;9750;48.730;10.294;2022-08-21T11:37:14;22.10;74.70
19232;DHT22;9750;48.730;10.294;2022-08-21T11:39:52;22.20;73.80
19232;DHT22;9750;48.730;10.294;2022-08-21T11:42:28;22.20;74.70
19232;DHT22;9750;48.730;10.294;2022-08-21T11:45:08;22.40;76.90
19232;DHT22;9750;48.730;10.294;2022-08-21T11:47:46;22.50;77.10
19232;DHT22;9750;48.730;10.294;2022-08-21T11:50:18;22.50;76.20
19232;DHT22;9750;48.730;10.294;2022-08-21T11:52:48;22.60;78.00
19232;DHT22;9750;48.730;10.294;2022-08-21T11:55:20;22.70;76.10
19232;DHT22;9750;48.730;10.294;2022-08-21T11:57:53;22.70;75.20
19232;DHT22;9750;48.730;10.294;2022-08-21T12:00:26;22.80;77.00
19232;DHT22;9750;48.730;10.294;2022-08-21T12:03:10;22.80;74.80
19232;DHT22;9750;48.730;10.294;2022-08-21T12:05:41;22.70;75.10
19232;DHT22;9750;48.730;10.294;2022-08-21T12:08:14;22.70;74.80
19232;DHT22;9750;48.730;10.294;2022-08-21T12:10:45;22.60;75.20
19232;DHT22;9750;48.730;10.294;2022-08-21T12:13:24;22.60;74.30
19232;DHT22;9750;48.730;10.294;2022-08-21T12:15:52;22.60;75.00
19232;DHT22;9750;48.730;10.294;2022-08-21T12:18:27;22.80;74.20
19232;DHT22;9750;48.730;10.294;2022-08-21T12:21:16;22.90;73.70
19232;DHT22;9750;48.730;10.294;2022-08-21T12:23:48;23.00;74.50
19232;DHT22;9750;48.730;10.294;2022-08-21T12:26:30;23.10;73.70
19232;DHT22;9750;48.730;10.294;2022-08-21T12:29:16;23.30;74.00
19232;DHT22;9750;48.730;10.294;2022-08-21T12:31:59;23.40;72.90
19232;DHT22;9750;48.730;10.294;2022-08-21T12:34:33;23.40;70.40
19232;DHT22;9750;48.730;10.294;2022-08-21T12:37:04;23.50;71.20
19232;DHT22;9750;48.730;10.294;2022-08-21T12:39:36;23.40;71.40
19232;DHT22;9750;48.730;10.294;2022-08-21T12:42:10;23.40;70.90
19232;DHT22;9750;48.730;10.294;2022-08-21T12:44:46;23.40;72.20
19232;DHT22;9750;48.730;10.294;2022-08-21T12:47:17;23.50;70.70
19232;DHT22;9750;48.730;10.294;2022-08-21T12:49:56;23.60;71.30
19232;DHT22;9750;48.730;10.294;2022-08-21T12:52:30;23.60;72.70
19232;DHT22;9750;48.730;10.294;2022-08-21T12:54:59;23.60;74.00
19232;DHT22;9750;48.730;10.294;2022-08-21T12:57:29;23.60;70.60
19232;DHT22;9750;48.730;10.294;2022-08-21T12:59:58;23.70;71.40
19232;DHT22;9750;48.730;10.294;2022-08-21T13:02:29;23.80;71.00
19232;DHT22;9750;48.730;10.294;2022-08-21T13:05:03;23.90;70.00
19232;DHT22;9750;48.730;10.294;2022-08-21T13:07:32;24.00;70.00
19232;DHT22;9750;48.730;10.294;2022-08-21T13:10:05;24.10;70.60
19232;DHT22;9750;48.730;10.294;2022-08-21T13:12:35;24.20;69.90
19232;DHT22;9750;48.730;10.294;2022-08-21T13:15:06;24.20;69.20
19232;DHT22;9750;48.730;10.294;2022-08-21T13:17:36;24.20;69.20
19232;DHT22;9750;48.730;10.294;2022-08-21T13:20:10;24.20;69.20
19232;DHT22;9750;48.730;10.294;2022-08-21T13:26:13;24.20;67.60
19232;DHT22;9750;48.730;10.294;2022-08-21T13:28:40;24.20;66.70
19232;DHT22;9750;48.730;10.294;2022-08-21T13:31:10;24.10;68.10
19232;DHT22;9750;48.730;10.294;2022-08-21T13:33:38;24.10;67.80
19232;DHT22;9750;48.730;10.294;2022-08-21T13:36:11;24.20;67.70
19232;DHT22;9750;48.730;10.294;2022-08-21T13:38:41;24.30;67.00
19232;DHT22;9750;48.730;10.294;2022-08-21T13:41:16;24.30;66.80
19232;DHT22;9750;48.730;10.294;2022-08-21T13:43:50;24.40;66.50
19232;DHT22;9750;48.730;10.294;2022-08-21T13:46:18;24.40;65.10
19232;DHT22;9750;48.730;10.294;2022-08-21T13:48:49;24.50;66.00
19232;DHT22;9750;48.730;10.294;2022-08-21T13:51:18;24.50;66.10
19232;DHT22;9750;48.730;10.294;2022-08-21T13:53:48;24.50;65.70
19232;DHT22;9750;48.730;10.294;2022-08-21T13:56:25;24.50;66.30
19232;DHT22;9750;48.730;10.294;2022-08-21T13:58:55;24.50;66.60
19232;DHT22;9750;48.730;10.294;2022-08-21T14:01:25;24.60;65.50
19232;DHT22;9750;48.730;10.294;2022-08-21T14:03:56;24.60;66.00
19232;DHT22;9750;48.730;10.294;2022-08-21T14:06:32;24.70;68.60
19232;DHT22;9750;48.730;10.294;2022-08-21T14:09:03;24.70;65.50
19232;DHT22;9750;48.730;10.294;2022-08-21T14:11:35;24.80;66.20
19232;DHT22;9750;48.730;10.294;2022-08-21T14:14:05;24.80;63.80
19232;DHT22;9750;48.730;10.294;2022-08-21T14:16:44;24.90;64.00
19232;DHT22;9750;48.730;10.294;2022-08-21T14:19:19;25.00;63.20
19232;DHT22;9750;48.730;10.294;2022-08-21T14:21:48;25.00;65.00
19232;DHT22;9750;48.730;10.294;2022-08-21T14:24:26;25.00;65.10
19232;DHT22;9750;48.730;10.294;2022-08-21T14:26:55;25.00;64.10
19232;DHT22;9750;48.730;10.294;2022-08-21T14:29:26;25.00;63.80
19232;DHT22;9750;48.730;10.294;2022-08-21T14:31:55;25.10;63.90
19232;DHT22;9750;48.730;10.294;2022-08-21T14:34:25;25.10;62.70
19232;DHT22;9750;48.730;10.294;2022-08-21T14:36:55;25.20;63.70
19232;DHT22;9750;48.730;10.294;2022-08-21T14:39:22;25.20;62.40
19232;DHT22;9750;48.730;10.294;2022-08-21T14:41:52;25.20;63.30
19232;DHT22;9750;48.730;10.294;2022-08-21T14:44:19;25.20;64.60
19232;DHT22;9750;48.730;10.294;2022-08-21T14:46:47;25.20;63.90
19232;DHT22;9750;48.730;10.294;2022-08-21T14:49:14;25.10;62.90
19232;DHT22;9750;48.730;10.294;2022-08-21T14:51:42;25.10;63.20
19232;DHT22;9750;48.730;10.294;2022-08-21T14:54:11;25.10;62.80
19232;DHT22;9750;48.730;10.294;2022-08-21T14:56:38;25.10;63.10
19232;DHT22;9750;48.730;10.294;2022-08-21T14:59:07;25.00;62.80
19232;DHT22;9750;48.730;10.294;2022-08-21T15:01:49;25.00;63.50
19232;DHT22;9750;48.730;10.294;2022-08-21T15:04:17;24.80;62.90
19232;DHT22;9750;48.730;10.294;2022-08-21T15:06:45;24.80;63.20
19232;DHT22;9750;48.730;10.294;2022-08-21T15:09:14;24.80;63.20
19232;DHT22;9750;48.730;10.294;2022-08-21T15:11:42;24.90;63.20
19232;DHT22;9750;48.730;10.294;2022-08-21T15:14:15;25.00;64.00
19232;DHT22;9750;48.730;10.294;2022-08-21T15:16:44;24.90;62.50
19232;DHT22;9750;48.730;10.294;2022-08-21T15:19:12;24.90;62.90
19232;DHT22;9750;48.730;10.294;2022-08-21T15:21:39;24.90;61.10
19232;DHT22;9750;48.730;10.294;2022-08-21T15:24:07;24.90;60.30
19232;DHT22;9750;48.730;10.294;2022-08-21T15:26:36;24.90;60.30
19232;DHT22;9750;48.730;10.294;2022-08-21T15:29:05;25.00;60.90
19232;DHT22;9750;48.730;10.294;2022-08-21T15:31:34;25.10;61.60
19232;DHT22;9750;48.730;10.294;2022-08-21T15:34:02;25.10;60.30
19232;DHT22;9750;48.730;10.294;2022-08-21T15:36:29;25.10;61.10
19232;DHT22;9750;48.730;10.294;2022-08-21T15:38:57;25.10;60.20
19232;DHT22;9750;48.730;10.294;2022-08-21T15:41:24;25.10;59.30
19232;DHT22;9750;48.730;10.294;2022-08-21T15:43:53;25.10;60.30
19232;DHT22;9750;48.730;10.294;2022-08-21T15:46:21;25.10;60.20
19232;DHT22;9750;48.730;10.294;2022-08-21T15:48:48;25.10;59.10
19232;DHT22;9750;48.730;10.294;2022-08-21T15:51:16;25.10;59.30
19232;DHT22;9750;48.730;10.294;2022-08-21T15:53:44;25.10;59.80
19232;DHT22;9750;48.730;10.294;2022-08-21T15:56:17;25.10;60.20
19232;DHT22;9750;48.730;10.294;2022-08-21T15:58:47;25.10;61.80
19232;DHT22;9750;48.730;10.294;2022-08-21T16:01:16;25.10;62.20
19232;DHT22;9750;48.730;10.294;2022-08-21T16:03:47;25.10;62.60